Time;durP1;ratioP1;P1;durP2;ratioP2;P2;SDS_P1;SDS_P2;PMS_P1;PMS_P2;Temp;Humidity;BMP_temperature;BMP_pressure;BME280_temperature;BME280_humidity;BME280_pressure;Samples;Min_cycle;Max_cycle;Signal;HPM_P1;HPM_P2
2022/12/16 00:02:27;;;;;;;13.52;8.25;;;-3.00;1.00;;;;;;5053129;28;20238;-77
2022/12/16 00:04:53;;;;;;;12.80;7.70;;;-3.00;1.00;;;;;;5050230;28;20180;-77
2022/12/16 00:07:21;;;;;;;13.70;7.60;;;-2.90;1.00;;;;;;5067236;28;20189;-78
2022/12/16 00:09:51;;;;;;;14.52;7.90;;;-2.90;1.00;;;;;;5060821;28;20299;-78
2022/12/16 00:12:21;;;;;;;16.40;8.40;;;-2.90;1.00;;;;;;5057133;28;20245;-77
2022/12/16 00:14:51;;;;;;;12.45;7.63;;;-2.90;1.00;;;;;;5043798;28;20192;-77
2022/12/16 00:17:21;;;;;;;15.75;7.65;;;-3.00;1.00;;;;;;5048472;28;20198;-79
2022/12/16 00:19:51;;;;;;;14.43;7.57;;;-2.90;1.00;;;;;;5052720;28;20691;-77
2022/12/16 00:22:33;;;;;;;11.82;6.72;;;-2.90;1.00;;;;;;5053431;28;20665;-79
2022/12/16 00:24:58;;;;;;;14.00;7.82;;;-2.80;1.00;;;;;;5067687;28;20199;-77
2022/12/16 00:27:24;;;;;;;11.93;7.33;;;-2.90;1.00;;;;;;5055606;28;20195;-78
2022/12/16 00:30:03;;;;;;;10.37;6.43;;;-2.90;1.00;;;;;;5062772;28;20209;-78
2022/12/16 00:32:33;;;;;;;10.80;6.47;;;-2.90;1.00;;;;;;5054273;28;20213;-78
2022/12/16 00:35:03;;;;;;;15.25;6.47;;;-2.90;1.00;;;;;;5050554;28;20207;-77
2022/12/16 00:37:39;;;;;;;13.45;6.63;;;-2.90;1.00;;;;;;5052454;28;20152;-77
2022/12/16 00:40:05;;;;;;;14.75;6.70;;;-2.90;1.00;;;;;;5055259;28;20282;-77
2022/12/16 00:43:14;;;;;;;9.95;6.78;;;-2.90;1.00;;;;;;5072849;28;20163;-77
2022/12/16 00:46:32;;;;;;;11.88;6.35;;;-2.90;1.00;;;;;;5052963;28;20175;-85
2022/12/16 00:52:33;;;;;;;10.57;6.57;;;-2.80;1.00;;;;;;5051402;28;20583;-85
2022/12/16 00:58:33;;;;;;;17.55;7.63;;;-2.90;1.00;;;;;;5044263;28;20258;-85
2022/12/16 01:04:20;;;;;;;9.48;6.68;;;-2.80;1.00;;;;;;5056302;28;20214;-86
2022/12/16 01:07:20;;;;;;;10.63;6.10;;;-2.80;1.00;;;;;;5053685;28;20156;-86
2022/12/16 01:09:51;;;;;;;10.32;6.00;;;-2.80;1.00;;;;;;5059640;28;20210;-86
2022/12/16 01:12:21;;;;;;;11.93;6.25;;;-2.80;1.00;;;;;;5047208;28;20184;-86
2022/12/16 01:14:57;;;;;;;10.30;6.63;;;-2.70;1.00;;;;;;5045590;28;20542;-86
2022/12/16 01:17:27;;;;;;;11.52;6.38;;;-2.70;1.00;;;;;;5053381;28;20256;-86
2022/12/16 01:19:57;;;;;;;8.35;5.57;;;-2.70;1.00;;;;;;5046649;28;20591;-86
2022/12/16 01:22:29;;;;;;;9.38;5.82;;;-2.70;1.00;;;;;;5055883;28;20657;-86
2022/12/16 01:24:57;;;;;;;7.88;5.38;;;-2.70;1.00;;;;;;5056823;28;20176;-86
2022/12/16 01:27:28;;;;;;;9.40;5.85;;;-2.70;1.00;;;;;;5055332;28;20678;-85
2022/12/16 01:29:57;;;;;;;9.27;5.90;;;-2.70;1.00;;;;;;5064338;28;20262;-86
2022/12/16 01:32:27;;;;;;;9.98;5.70;;;-2.80;1.00;;;;;;5056665;28;20229;-86
2022/12/16 01:38:27;;;;;;;9.07;6.13;;;-2.80;1.00;;;;;;5057471;28;20214;-86
2022/12/16 01:40:57;;;;;;;11.63;6.88;;;-2.90;1.00;;;;;;5067905;28;20193;-86
2022/12/16 01:43:33;;;;;;;12.60;6.85;;;-3.00;1.00;;;;;;5049435;28;20186;-83
2022/12/16 01:46:13;;;;;;;9.93;6.93;;;-3.00;1.00;;;;;;5062239;28;20695;-78
2022/12/16 01:49:02;;;;;;;12.68;6.93;;;-2.90;1.00;;;;;;5051237;28;20634;-79
2022/12/16 01:52:00;;;;;;;14.82;7.10;;;-2.90;1.00;;;;;;5056823;28;20179;-78
2022/12/16 01:54:38;;;;;;;13.07;6.90;;;-2.90;1.00;;;;;;5069075;28;20211;-78
2022/12/16 01:57:14;;;;;;;11.45;6.90;;;-3.00;1.00;;;;;;5055477;28;20268;-77
2022/12/16 01:59:50;;;;;;;13.13;7.50;;;-3.00;1.00;;;;;;5066462;28;20183;-86
2022/12/16 02:02:21;;;;;;;11.65;7.05;;;-3.00;1.00;;;;;;5068694;28;20183;-86
2022/12/16 02:05:21;;;;;;;18.02;7.53;;;-3.00;1.00;;;;;;5061365;28;20180;-86
2022/12/16 02:11:52;;;;;;;18.20;6.97;;;-3.00;1.00;;;;;;5058716;28;20178;-85
2022/12/16 02:14:51;;;;;;;13.43;7.47;;;-3.00;1.00;;;;;;5050637;28;20178;-78
2022/12/16 02:17:30;;;;;;;10.75;7.13;;;-3.10;1.00;;;;;;5053087;28;20188;-78
2022/12/16 02:20:02;;;;;;;12.82;7.30;;;-3.10;1.00;;;;;;5067391;28;20693;-77
2022/12/16 02:22:45;;;;;;;11.13;6.97;;;-3.20;1.00;;;;;;5055085;28;20179;-77
2022/12/16 02:25:31;;;;;;;10.57;7.10;;;-3.20;1.00;;;;;;5068633;28;20172;-78
2022/12/16 02:28:47;;;;;;;11.27;7.60;;;-3.20;1.00;;;;;;5045197;28;20178;-78
2022/12/16 02:31:33;;;;;;;12.13;7.20;;;-3.20;1.00;;;;;;5033631;28;20196;-86
2022/12/16 02:34:38;;;;;;;11.48;6.75;;;-3.20;1.00;;;;;;5044940;28;20183;-85
2022/12/16 02:37:47;;;;;;;11.70;7.68;;;-3.30;1.00;;;;;;5046045;28;20263;-86
2022/12/16 02:44:08;;;;;;;12.77;7.15;;;-3.30;1.00;;;;;;4960074;28;20672;-86
2022/12/16 02:47:05;;;;;;;12.07;7.25;;;-3.30;1.00;;;;;;4964533;28;20658;-78
2022/12/16 02:49:33;;;;;;;11.15;6.65;;;-3.30;1.00;;;;;;4900439;29;20201;-78
2022/12/16 02:52:03;;;;;;;9.45;6.45;;;-3.30;1.00;;;;;;4897188;29;20184;-79
2022/12/16 02:54:58;;;;;;;17.02;7.32;;;-3.20;1.00;;;;;;4895009;29;20211;-79
2022/12/16 02:57:41;;;;;;;8.82;6.35;;;-3.10;1.00;;;;;;4879773;29;20186;-77
2022/12/16 03:00:30;;;;;;;10.18;6.65;;;-3.20;1.00;;;;;;4908102;29;20193;-86
2022/12/16 03:03:24;;;;;;;10.65;6.20;;;-3.10;1.00;;;;;;4903916;29;20199;-85
2022/12/16 03:06:10;;;;;;;9.55;6.13;;;-3.10;1.00;;;;;;4885808;29;20195;-86
2022/12/16 03:08:44;;;;;;;9.00;5.75;;;-3.00;1.00;;;;;;4909259;29;20203;-86
2022/12/16 03:11:56;;;;;;;13.65;5.90;;;-3.10;1.00;;;;;;4898347;29;20199;-86
2022/12/16 03:14:32;;;;;;;8.40;5.47;;;-3.10;1.00;;;;;;4913539;29;20191;-80
2022/12/16 03:17:17;;;;;;;12.90;5.90;;;-3.10;1.00;;;;;;4932925;28;20192;-78
2022/12/16 03:19:55;;;;;;;8.50;5.60;;;-3.20;1.00;;;;;;4954190;29;20281;-78
2022/12/16 03:22:31;;;;;;;8.50;5.90;;;-3.20;1.00;;;;;;4945369;28;20230;-78
2022/12/16 03:24:57;;;;;;;6.78;4.80;;;-3.10;1.00;;;;;;4974206;28;20182;-78
2022/12/16 03:28:11;;;;;;;9.55;6.10;;;-3.10;1.00;;;;;;5064306;28;20180;-78
2022/12/16 03:31:26;;;;;;;11.55;5.57;;;-3.10;1.00;;;;;;5032387;28;20215;-77
2022/12/16 03:34:42;;;;;;;8.93;5.57;;;-3.10;1.00;;;;;;5022109;28;20180;-78
2022/12/16 03:37:15;;;;;;;8.82;4.85;;;-3.20;1.00;;;;;;5015398;28;20206;-77
2022/12/16 03:39:48;;;;;;;10.05;5.00;;;-3.10;1.00;;;;;;5031438;28;20207;-77
2022/12/16 03:42:15;;;;;;;9.20;5.70;;;-3.10;1.00;;;;;;5027817;28;20192;-77
2022/12/16 03:44:46;;;;;;;7.90;5.28;;;-3.10;1.00;;;;;;5016343;28;20243;-84
2022/12/16 03:47:15;;;;;;;7.60;4.57;;;-3.20;1.00;;;;;;5041528;28;20246;-86
2022/12/16 03:49:57;;;;;;;8.32;4.75;;;-3.20;1.00;;;;;;5029723;28;20707;-86
2022/12/16 03:52:27;;;;;;;7.05;5.07;;;-3.20;1.00;;;;;;5018353;28;20299;-86
2022/12/16 03:54:57;;;;;;;10.70;5.50;;;-3.20;1.00;;;;;;5032636;28;20578;-86
2022/12/16 03:57:27;;;;;;;8.65;5.20;;;-3.20;1.00;;;;;;5031152;28;20263;-86
2022/12/16 03:59:57;;;;;;;14.15;5.00;;;-3.20;1.00;;;;;;5012784;28;20682;-78
2022/12/16 04:02:27;;;;;;;9.32;5.40;;;-3.20;1.00;;;;;;5011313;28;20643;-78
2022/12/16 04:04:57;;;;;;;5.75;4.40;;;-3.20;1.00;;;;;;5020206;28;20574;-78
2022/12/16 04:07:27;;;;;;;10.27;4.22;;;-3.20;1.00;;;;;;5041928;28;20655;-77
2022/12/16 04:09:57;;;;;;;12.70;4.65;;;-3.20;1.00;;;;;;5053660;28;20246;-78
2022/12/16 04:29:32;;;;;;;6.70;4.55;;;-3.30;1.00;;;;;;5022056;28;20191;-78
2022/12/16 04:32:03;;;;;;;6.80;4.70;;;-3.30;1.00;;;;;;5036169;28;20184;-78
2022/12/16 04:34:45;;;;;;;5.72;4.10;;;-3.40;1.00;;;;;;5028881;28;20679;-78
